Aérodrome :







RETROUVEZ-NOUS SUR...

 
LOGIN :

S'inscrire | Disclaimer

   EN    FR    IT 

 









Légende :    VFR   VFR Marginal   IFR   IFR Intensif   IFR Très Intensif
Visi : 
Plafond : 
>= 8 km
>= 3000ft
5 à 8 km
1000 à 3000 ft
1500m à 5 km
500 à 1000 ft
800 à 1500m
200 à 500 ft
< 800m
< 200 ft
Symboles :   Orages  Brouillard  Fortes neiges  Fortes précipitations  Vent > 20 kt






- Altitude de l'aérodrome : 1166 ft


KMPV - Edward F Knapp State

DERNIER METAR :
  • 261451Z AUTO 19003KT 10SM OVC023 00/M01 A2967 RMK AO2 SLP060 I3001 T00001006 58004

METARs EXPIRÉS :
  • 261436Z AUTO 00000KT 2 1/2SM BR OVC023 00/M01 A2967 RMK AO2 T00001006
  • 261422Z AUTO 00000KT 1SM BR FEW001 OVC023 00/M01 A2967 RMK AO2 T00001006
  • 261405Z AUTO 00000KT 8SM FEW001 OVC022 M01/M01 A2967 RMK AO2 T10061006
  • 261355Z AUTO 00000KT 1 1/4SM BR FEW001 OVC024 M01/M01 A2968 RMK AO2 T10061011
  • 261330Z AUTO 00000KT 3/4SM BR SCT001 SCT022 M01/M01 A2968 RMK AO2 VIS 1/4V3 T10061006
  • 261328Z AUTO 00000KT 1 3/4SM BR SCT001 SCT022 M01/M01 A2968 RMK AO2 VIS 1/2V5 T10061006
  • 261315Z AUTO 00000KT 10SM FEW001 SCT024 M01/M01 A2968 RMK AO2 T10061006
  • 261305Z AUTO 16003KT 4SM BR SCT001 BKN024 M01/M01 A2968 RMK AO2 T10111011

TAF KMPV
Valide du 26 à 12h jusqu'au 27 à 12h UTC


261121Z 2612/2712 VRB03KT 1/4SM FG OVC002
FM261400 VRB03KT P6SM OVC005
FM261900 24006KT P6SM VCSH OVC027
FM262300 23006KT 4SM -SHSN BR OVC025
FM270600 22006KT P6SM VCSH OVC027



MET'MAP, la Météo Aéronautique d'un coup d'oeil ! - Copyright ORBIFLY Décembre 2007 - Disclaimer

ORBIFLY MET'MAP TEAM :

Programmation & Développement : Alexandra Zaïnal
Sur une idée originale de : Baudouin d'Aumeries
Assistance à la programmation : Marc-Olivier Méhu
Soutien technique & logistique : Manuel Goepfert

Contact : metmap@orbifly.com




SOURCES & CREDITS :

   NOAA